UAE6K VRMM-OMDB
Flight info
| Callsign | UAE6K |
|---|---|
| Flight time | 3h 35m |
| Altitude | 38000 |
| Route | ELBET1A ELBET L894 KITAL P570 ITURA M762 MIVEK P574 IMPED |
| Aircraft | B77W/H-SDE1E2E3FGHIJ2J3J4J5M1RWXY/LB1D1 |
Departure
| Time | 2026-04-30 07:01 |
|---|---|
| Airport | Velana International Airport (VRMM) |
Arrival
| Time | 2026-04-30 10:37 |
|---|---|
| Airport | Dubai International Airport (OMDB) |
| Time | Latitude | Longitude | Altitude | Speed | Heading |
|---|---|---|---|---|---|
| 2026-04-30 06:22 | 4.18500 | 73.52792 | 22 ft | 0 kts | 269° |
| 2026-04-30 06:52 | 4.18501 | 73.52799 | 22 ft | 0 kts | 269° |
| 2026-04-30 06:52 | 4.18501 | 73.52813 | 22 ft | 2 kts | 258° |
| 2026-04-30 06:53 | 4.18506 | 73.52827 | 23 ft | 2 kts | 240° |
| 2026-04-30 06:53 | 4.18515 | 73.52839 | 23 ft | 2 kts | 225° |
| 2026-04-30 06:53 | 4.18526 | 73.52849 | 23 ft | 2 kts | 210° |
| 2026-04-30 06:53 | 4.18540 | 73.52855 | 23 ft | 2 kts | 194° |
| 2026-04-30 06:54 | 4.18554 | 73.52857 | 23 ft | 0 kts | 180° |
| 2026-04-30 06:54 | 4.18559 | 73.52857 | 23 ft | 0 kts | 178° |
| 2026-04-30 06:57 | 4.18557 | 73.52857 | 23 ft | 1 kts | 178° |
| 2026-04-30 06:57 | 4.18526 | 73.52858 | 23 ft | 5 kts | 178° |
| 2026-04-30 06:57 | 4.18494 | 73.52866 | 22 ft | 4 kts | 134° |
| 2026-04-30 06:58 | 4.18477 | 73.52909 | 22 ft | 7 kts | 120° |
| 2026-04-30 06:58 | 4.18428 | 73.52927 | 21 ft | 7 kts | 177° |
| 2026-04-30 06:58 | 4.18372 | 73.52929 | 21 ft | 7 kts | 177° |
| 2026-04-30 06:58 | 4.18316 | 73.52930 | 21 ft | 7 kts | 179° |
| 2026-04-30 06:59 | 4.18264 | 73.52930 | 21 ft | 7 kts | 179° |
| 2026-04-30 06:59 | 4.18219 | 73.52932 | 21 ft | 5 kts | 169° |
| 2026-04-30 06:59 | 4.18198 | 73.52954 | 21 ft | 5 kts | 106° |
| 2026-04-30 06:59 | 4.18196 | 73.53014 | 20 ft | 10 kts | 90° |
| 2026-04-30 07:00 | 4.18201 | 73.53082 | 19 ft | 9 kts | 61° |
| 2026-04-30 07:00 | 4.18264 | 73.53103 | 18 ft | 10 kts | 359° |
| 2026-04-30 07:00 | 4.18335 | 73.53103 | 17 ft | 22 kts | 360° |
| 2026-04-30 07:00 | 4.18766 | 73.53101 | 22 ft | 100 kts | 359° |
| 2026-04-30 07:01 | 4.19724 | 73.53101 | 19 ft | 171 kts | 359° |
| 2026-04-30 07:01 | 4.21061 | 73.53105 | 371 ft | 203 kts | 358° |
| 2026-04-30 07:01 | 4.22466 | 73.53101 | 1293 ft | 207 kts | 358° |
| 2026-04-30 07:01 | 4.23930 | 73.53097 | 1964 ft | 218 kts | 358° |
| 2026-04-30 07:02 | 4.25520 | 73.53094 | 2428 ft | 238 kts | 358° |
| 2026-04-30 07:02 | 4.27227 | 73.53093 | 3004 ft | 253 kts | 359° |
| 2026-04-30 07:02 | 4.29047 | 73.53092 | 3703 ft | 268 kts | 359° |
| 2026-04-30 07:02 | 4.30922 | 73.53091 | 4554 ft | 276 kts | 359° |
| 2026-04-30 07:03 | 4.32839 | 73.53090 | 5556 ft | 279 kts | 359° |
| 2026-04-30 07:03 | 4.34803 | 73.53088 | 6441 ft | 285 kts | 360° |
| 2026-04-30 07:03 | 4.36789 | 73.53087 | 7377 ft | 288 kts | 0° |
| 2026-04-30 07:03 | 4.38786 | 73.53085 | 8282 ft | 292 kts | 0° |
| 2026-04-30 07:04 | 4.40815 | 73.53028 | 9177 ft | 295 kts | 352° |
| 2026-04-30 07:04 | 4.42791 | 73.52360 | 10021 ft | 302 kts | 329° |
| 2026-04-30 07:04 | 4.44513 | 73.51098 | 10637 ft | 316 kts | 321° |
| 2026-04-30 07:04 | 4.46231 | 73.49616 | 11090 ft | 337 kts | 320° |
| 2026-04-30 07:05 | 4.49975 | 73.46345 | 11941 ft | 377 kts | 320° |
| 2026-04-30 07:05 | 4.52025 | 73.44565 | 12365 ft | 395 kts | 320° |
| 2026-04-30 07:05 | 4.54132 | 73.42735 | 13045 ft | 404 kts | 320° |
| 2026-04-30 07:06 | 4.56264 | 73.40884 | 13866 ft | 408 kts | 320° |
| 2026-04-30 07:06 | 4.58397 | 73.39032 | 14653 ft | 412 kts | 321° |
| 2026-04-30 07:06 | 4.60600 | 73.37120 | 15406 ft | 417 kts | 321° |
| 2026-04-30 07:06 | 4.62799 | 73.35211 | 16134 ft | 422 kts | 321° |
| 2026-04-30 07:07 | 4.65046 | 73.33260 | 16867 ft | 426 kts | 321° |
| 2026-04-30 07:07 | 4.67308 | 73.31297 | 17557 ft | 431 kts | 321° |
| 2026-04-30 07:07 | 4.69590 | 73.29316 | 18221 ft | 435 kts | 321° |
| 2026-04-30 07:07 | 4.71887 | 73.27322 | 18841 ft | 440 kts | 321° |
| 2026-04-30 07:08 | 4.74224 | 73.25291 | 19484 ft | 444 kts | 321° |
| 2026-04-30 07:08 | 4.76550 | 73.23270 | 20070 ft | 449 kts | 321° |
| 2026-04-30 07:08 | 4.78936 | 73.21197 | 20642 ft | 454 kts | 321° |
| 2026-04-30 07:08 | 4.81312 | 73.19133 | 21217 ft | 458 kts | 321° |
| 2026-04-30 07:09 | 4.83764 | 73.17001 | 21757 ft | 463 kts | 321° |
| 2026-04-30 07:09 | 4.86195 | 73.14889 | 22283 ft | 467 kts | 321° |
| 2026-04-30 07:09 | 4.88650 | 73.12756 | 22844 ft | 471 kts | 320° |
| 2026-04-30 07:09 | 4.91126 | 73.10603 | 23434 ft | 473 kts | 320° |
| 2026-04-30 07:10 | 4.93622 | 73.08433 | 23998 ft | 476 kts | 320° |
| 2026-04-30 07:10 | 4.96139 | 73.06245 | 24547 ft | 479 kts | 320° |
| 2026-04-30 07:10 | 4.98659 | 73.04054 | 25094 ft | 482 kts | 320° |
| 2026-04-30 07:10 | 5.01218 | 73.01828 | 25660 ft | 485 kts | 320° |
| 2026-04-30 07:11 | 5.03777 | 72.99603 | 26203 ft | 488 kts | 320° |
| 2026-04-30 07:11 | 5.06344 | 72.97370 | 26743 ft | 492 kts | 320° |
| 2026-04-30 07:11 | 5.08925 | 72.95124 | 27291 ft | 495 kts | 320° |
| 2026-04-30 07:11 | 5.11525 | 72.92862 | 27822 ft | 498 kts | 320° |
| 2026-04-30 07:12 | 5.14182 | 72.90551 | 28363 ft | 501 kts | 320° |
| 2026-04-30 07:12 | 5.16821 | 72.88254 | 28908 ft | 504 kts | 319° |
| 2026-04-30 07:12 | 5.19449 | 72.85967 | 29540 ft | 505 kts | 319° |
| 2026-04-30 07:12 | 5.22129 | 72.83634 | 30319 ft | 503 kts | 319° |
| 2026-04-30 07:13 | 5.24746 | 72.81355 | 31101 ft | 501 kts | 319° |
| 2026-04-30 07:13 | 5.27356 | 72.79084 | 31796 ft | 500 kts | 319° |
| 2026-04-30 07:13 | 5.29992 | 72.76788 | 32451 ft | 499 kts | 319° |
| 2026-04-30 07:13 | 5.32609 | 72.74509 | 33110 ft | 498 kts | 319° |
| 2026-04-30 07:14 | 5.35201 | 72.72252 | 33876 ft | 495 kts | 319° |
| 2026-04-30 07:14 | 5.37802 | 72.69986 | 34565 ft | 493 kts | 319° |
| 2026-04-30 07:14 | 5.40402 | 72.67722 | 35189 ft | 492 kts | 319° |
| 2026-04-30 07:14 | 5.43003 | 72.65456 | 35747 ft | 492 kts | 319° |
| 2026-04-30 07:15 | 5.45594 | 72.63198 | 35888 ft | 496 kts | 319° |
| 2026-04-30 07:15 | 5.48177 | 72.60947 | 35891 ft | 494 kts | 319° |
| 2026-04-30 07:15 | 5.53423 | 72.56376 | 35891 ft | 492 kts | 319° |
| 2026-04-30 07:16 | 5.58658 | 72.51811 | 35888 ft | 491 kts | 319° |
| 2026-04-30 07:16 | 5.63864 | 72.47272 | 35892 ft | 492 kts | 319° |
| 2026-04-30 07:17 | 5.69020 | 72.42775 | 35892 ft | 492 kts | 319° |
| 2026-04-30 07:18 | 5.76800 | 72.35988 | 35894 ft | 492 kts | 319° |
| 2026-04-30 07:18 | 5.81959 | 72.31485 | 35888 ft | 492 kts | 319° |
| 2026-04-30 07:19 | 5.87122 | 72.26977 | 35894 ft | 493 kts | 319° |
| 2026-04-30 07:19 | 5.92290 | 72.22465 | 35888 ft | 492 kts | 319° |
| 2026-04-30 07:20 | 5.97489 | 72.17924 | 35889 ft | 492 kts | 319° |
| 2026-04-30 07:20 | 6.02644 | 72.13422 | 35890 ft | 493 kts | 319° |
| 2026-04-30 07:21 | 6.07808 | 72.08909 | 35891 ft | 493 kts | 319° |
| 2026-04-30 07:21 | 6.13003 | 72.04369 | 35896 ft | 492 kts | 319° |
| 2026-04-30 07:22 | 6.20749 | 71.97596 | 35908 ft | 492 kts | 319° |
| 2026-04-30 07:22 | 6.25908 | 71.93084 | 35909 ft | 493 kts | 319° |
| 2026-04-30 07:23 | 6.31115 | 71.88528 | 35910 ft | 493 kts | 319° |
| 2026-04-30 07:23 | 6.36274 | 71.84013 | 35908 ft | 492 kts | 319° |
| 2026-04-30 07:24 | 6.41572 | 71.79691 | 35902 ft | 491 kts | 323° |
| 2026-04-30 07:24 | 6.46990 | 71.75495 | 35895 ft | 490 kts | 322° |
| 2026-04-30 07:25 | 6.52384 | 71.71297 | 35892 ft | 490 kts | 322° |
| 2026-04-30 07:25 | 6.57781 | 71.67083 | 35892 ft | 491 kts | 322° |
| 2026-04-30 07:26 | 6.63165 | 71.62872 | 35890 ft | 491 kts | 322° |
| 2026-04-30 07:26 | 6.68576 | 71.58635 | 35890 ft | 490 kts | 322° |
| 2026-04-30 07:27 | 6.73962 | 71.54414 | 35891 ft | 490 kts | 322° |
| 2026-04-30 07:27 | 6.79361 | 71.50181 | 35890 ft | 489 kts | 322° |
| 2026-04-30 07:28 | 6.84731 | 71.45969 | 35890 ft | 489 kts | 322° |
| 2026-04-30 07:28 | 6.90118 | 71.41742 | 35891 ft | 489 kts | 322° |
| 2026-04-30 07:29 | 6.95490 | 71.37526 | 35891 ft | 489 kts | 322° |
| 2026-04-30 07:29 | 7.00847 | 71.33319 | 35888 ft | 489 kts | 322° |
| 2026-04-30 07:30 | 7.08891 | 71.27001 | 35889 ft | 489 kts | 322° |
| 2026-04-30 07:31 | 7.14250 | 71.22791 | 35887 ft | 488 kts | 322° |
| 2026-04-30 07:31 | 7.19619 | 71.18571 | 35887 ft | 488 kts | 322° |
| 2026-04-30 07:32 | 7.24990 | 71.14348 | 35885 ft | 489 kts | 322° |
| 2026-04-30 07:32 | 7.30355 | 71.10128 | 35887 ft | 489 kts | 322° |
| 2026-04-30 07:33 | 7.35706 | 71.05918 | 35886 ft | 489 kts | 322° |
| 2026-04-30 07:33 | 7.41075 | 71.01693 | 35885 ft | 488 kts | 322° |
| 2026-04-30 07:34 | 7.46449 | 70.97463 | 35888 ft | 488 kts | 322° |
| 2026-04-30 07:34 | 7.51797 | 70.93251 | 35891 ft | 489 kts | 322° |
| 2026-04-30 07:35 | 7.57154 | 70.89025 | 35888 ft | 489 kts | 322° |
| 2026-04-30 07:35 | 7.62508 | 70.84801 | 35889 ft | 488 kts | 322° |
| 2026-04-30 07:36 | 7.67892 | 70.80551 | 35890 ft | 489 kts | 322° |
| 2026-04-30 07:36 | 7.73247 | 70.76324 | 35891 ft | 489 kts | 322° |
| 2026-04-30 07:37 | 7.78601 | 70.72096 | 35890 ft | 489 kts | 322° |
| 2026-04-30 07:37 | 7.83959 | 70.67863 | 35890 ft | 488 kts | 322° |
| 2026-04-30 07:38 | 7.89320 | 70.63627 | 35890 ft | 488 kts | 322° |
| 2026-04-30 07:38 | 7.94678 | 70.59391 | 35893 ft | 488 kts | 322° |
| 2026-04-30 07:39 | 8.00025 | 70.55163 | 35900 ft | 489 kts | 322° |
| 2026-04-30 07:39 | 8.05403 | 70.50908 | 35897 ft | 489 kts | 322° |
| 2026-04-30 07:40 | 8.10749 | 70.46678 | 35889 ft | 489 kts | 322° |
| 2026-04-30 07:40 | 8.16104 | 70.42439 | 35889 ft | 489 kts | 322° |
| 2026-04-30 07:41 | 8.21478 | 70.38183 | 35879 ft | 488 kts | 322° |
| 2026-04-30 07:41 | 8.26817 | 70.33954 | 35885 ft | 489 kts | 322° |
| 2026-04-30 07:42 | 8.32168 | 70.29713 | 35883 ft | 488 kts | 322° |
| 2026-04-30 07:42 | 8.37496 | 70.25489 | 35885 ft | 488 kts | 322° |
| 2026-04-30 07:43 | 8.42860 | 70.21236 | 35888 ft | 488 kts | 322° |
| 2026-04-30 07:43 | 8.48202 | 70.16997 | 35889 ft | 488 kts | 322° |
| 2026-04-30 07:44 | 8.53549 | 70.12755 | 35885 ft | 487 kts | 322° |
| 2026-04-30 07:44 | 8.58873 | 70.08527 | 35886 ft | 487 kts | 322° |
| 2026-04-30 07:45 | 8.64222 | 70.04279 | 35885 ft | 488 kts | 322° |
| 2026-04-30 07:45 | 8.69560 | 70.00039 | 35891 ft | 487 kts | 322° |
| 2026-04-30 07:46 | 8.74876 | 69.95814 | 35888 ft | 488 kts | 322° |
| 2026-04-30 07:46 | 8.80213 | 69.91570 | 35889 ft | 487 kts | 322° |
| 2026-04-30 07:47 | 8.85529 | 69.87343 | 35891 ft | 487 kts | 322° |
| 2026-04-30 07:47 | 8.90866 | 69.83096 | 35889 ft | 487 kts | 322° |
| 2026-04-30 07:48 | 8.96174 | 69.78871 | 35884 ft | 486 kts | 322° |
| 2026-04-30 07:48 | 9.01521 | 69.74614 | 35890 ft | 487 kts | 322° |
| 2026-04-30 07:49 | 9.06839 | 69.70377 | 35890 ft | 488 kts | 321° |
| 2026-04-30 07:49 | 9.12149 | 69.66146 | 35890 ft | 486 kts | 321° |
| 2026-04-30 07:50 | 9.17475 | 69.61900 | 35889 ft | 486 kts | 321° |
| 2026-04-30 07:50 | 9.22800 | 69.57653 | 35889 ft | 486 kts | 321° |
| 2026-04-30 07:51 | 9.28114 | 69.53413 | 35889 ft | 486 kts | 321° |
| 2026-04-30 07:51 | 9.33419 | 69.49179 | 35888 ft | 486 kts | 321° |
| 2026-04-30 07:52 | 9.38788 | 69.44892 | 35890 ft | 487 kts | 321° |
| 2026-04-30 07:52 | 9.44093 | 69.40654 | 35889 ft | 486 kts | 321° |
| 2026-04-30 07:53 | 9.49443 | 69.36380 | 35890 ft | 485 kts | 321° |
| 2026-04-30 07:53 | 9.54739 | 69.32145 | 35889 ft | 486 kts | 321° |
| 2026-04-30 07:54 | 9.60034 | 69.27911 | 35889 ft | 485 kts | 321° |
| 2026-04-30 07:54 | 9.65348 | 69.23659 | 35888 ft | 485 kts | 321° |
| 2026-04-30 07:55 | 9.70679 | 69.19392 | 35891 ft | 487 kts | 321° |
| 2026-04-30 07:55 | 9.76010 | 69.15121 | 35889 ft | 487 kts | 321° |
| 2026-04-30 07:56 | 9.81324 | 69.10860 | 35885 ft | 486 kts | 321° |
| 2026-04-30 07:56 | 9.86623 | 69.06609 | 35888 ft | 485 kts | 321° |
| 2026-04-30 07:57 | 9.91967 | 69.02321 | 35887 ft | 484 kts | 321° |
| 2026-04-30 07:57 | 9.97300 | 68.98038 | 35884 ft | 486 kts | 321° |
| 2026-04-30 07:58 | 10.02605 | 68.93778 | 35872 ft | 486 kts | 321° |
| 2026-04-30 07:58 | 10.07925 | 68.89503 | 35882 ft | 487 kts | 321° |
| 2026-04-30 07:59 | 10.13239 | 68.85230 | 35889 ft | 487 kts | 321° |
| 2026-04-30 07:59 | 10.18557 | 68.80952 | 35888 ft | 486 kts | 321° |
| 2026-04-30 08:00 | 10.26534 | 68.74534 | 35888 ft | 486 kts | 321° |
| 2026-04-30 08:00 | 10.31805 | 68.70290 | 35889 ft | 486 kts | 321° |
| 2026-04-30 08:01 | 10.37134 | 68.65997 | 35890 ft | 486 kts | 321° |
| 2026-04-30 08:01 | 10.42443 | 68.61719 | 35889 ft | 486 kts | 321° |
| 2026-04-30 08:02 | 10.50415 | 68.55291 | 35887 ft | 487 kts | 321° |
| 2026-04-30 08:03 | 10.60996 | 68.46752 | 35888 ft | 486 kts | 321° |
| 2026-04-30 08:04 | 10.66313 | 68.42459 | 35888 ft | 486 kts | 321° |
| 2026-04-30 08:04 | 10.71618 | 68.38173 | 35890 ft | 487 kts | 321° |
| 2026-04-30 08:05 | 10.76912 | 68.33894 | 35888 ft | 486 kts | 321° |
| 2026-04-30 08:05 | 10.82220 | 68.29602 | 35887 ft | 486 kts | 321° |
| 2026-04-30 08:06 | 10.87494 | 68.25336 | 35890 ft | 487 kts | 321° |
| 2026-04-30 08:06 | 10.92808 | 68.21034 | 35889 ft | 487 kts | 321° |
| 2026-04-30 08:07 | 10.98106 | 68.16744 | 35888 ft | 486 kts | 321° |
| 2026-04-30 08:07 | 11.03433 | 68.12428 | 35888 ft | 487 kts | 321° |
| 2026-04-30 08:08 | 11.08713 | 68.08149 | 35889 ft | 486 kts | 321° |
| 2026-04-30 08:08 | 11.14018 | 68.03847 | 35888 ft | 487 kts | 321° |
| 2026-04-30 08:09 | 11.19286 | 67.99573 | 35886 ft | 485 kts | 321° |
| 2026-04-30 08:09 | 11.24574 | 67.95280 | 35887 ft | 486 kts | 321° |
| 2026-04-30 08:10 | 11.29864 | 67.90984 | 35887 ft | 485 kts | 321° |
| 2026-04-30 08:10 | 11.35133 | 67.86703 | 35887 ft | 484 kts | 321° |
| 2026-04-30 08:11 | 11.40400 | 67.82422 | 35888 ft | 486 kts | 321° |
| 2026-04-30 08:11 | 11.45699 | 67.78112 | 35887 ft | 484 kts | 321° |
| 2026-04-30 08:12 | 11.50963 | 67.73829 | 35889 ft | 484 kts | 322° |
| 2026-04-30 08:12 | 11.56223 | 67.69547 | 35886 ft | 483 kts | 321° |
| 2026-04-30 08:13 | 11.61488 | 67.65259 | 35891 ft | 484 kts | 322° |
| 2026-04-30 08:13 | 11.66762 | 67.60960 | 35889 ft | 482 kts | 322° |
| 2026-04-30 08:14 | 11.71987 | 67.56701 | 35888 ft | 482 kts | 322° |
| 2026-04-30 08:14 | 11.77240 | 67.52416 | 35887 ft | 482 kts | 321° |
| 2026-04-30 08:15 | 11.82465 | 67.48152 | 35889 ft | 483 kts | 321° |
| 2026-04-30 08:15 | 11.87687 | 67.43888 | 35886 ft | 482 kts | 321° |
| 2026-04-30 08:16 | 11.92936 | 67.39600 | 35887 ft | 483 kts | 321° |
| 2026-04-30 08:16 | 11.98168 | 67.35324 | 35887 ft | 481 kts | 321° |
| 2026-04-30 08:17 | 12.03405 | 67.31042 | 35887 ft | 480 kts | 321° |
| 2026-04-30 08:17 | 12.08663 | 67.26743 | 35887 ft | 480 kts | 321° |
| 2026-04-30 08:18 | 12.13886 | 67.22469 | 35888 ft | 481 kts | 321° |
| 2026-04-30 08:18 | 12.19096 | 67.18202 | 35887 ft | 480 kts | 321° |
| 2026-04-30 08:19 | 12.24313 | 67.13928 | 35888 ft | 479 kts | 321° |
| 2026-04-30 08:19 | 12.29536 | 67.09647 | 35890 ft | 480 kts | 321° |
| 2026-04-30 08:20 | 12.34750 | 67.05372 | 35888 ft | 479 kts | 321° |
| 2026-04-30 08:20 | 12.39960 | 67.01097 | 35894 ft | 479 kts | 321° |
| 2026-04-30 08:21 | 12.45190 | 66.96804 | 35899 ft | 478 kts | 322° |
| 2026-04-30 08:21 | 12.50382 | 66.92539 | 35898 ft | 479 kts | 322° |
| 2026-04-30 08:22 | 12.55567 | 66.88279 | 35892 ft | 478 kts | 321° |
| 2026-04-30 08:22 | 12.60764 | 66.84006 | 35891 ft | 478 kts | 322° |
| 2026-04-30 08:23 | 12.65980 | 66.79715 | 35890 ft | 478 kts | 321° |
| 2026-04-30 08:23 | 12.71153 | 66.75457 | 35888 ft | 477 kts | 321° |
| 2026-04-30 08:24 | 12.76354 | 66.71173 | 35889 ft | 478 kts | 322° |
| 2026-04-30 08:24 | 12.81553 | 66.66889 | 35890 ft | 477 kts | 322° |
| 2026-04-30 08:25 | 12.86705 | 66.62642 | 35887 ft | 477 kts | 322° |
| 2026-04-30 08:25 | 12.91918 | 66.58342 | 36055 ft | 484 kts | 322° |
| 2026-04-30 08:25 | 12.94540 | 66.56178 | 36708 ft | 481 kts | 322° |
| 2026-04-30 08:26 | 12.97133 | 66.54037 | 37512 ft | 475 kts | 322° |
| 2026-04-30 08:26 | 12.99708 | 66.51911 | 37889 ft | 475 kts | 322° |
| 2026-04-30 08:26 | 13.02257 | 66.49806 | 37887 ft | 475 kts | 322° |
| 2026-04-30 08:27 | 13.07417 | 66.45543 | 37885 ft | 474 kts | 322° |
| 2026-04-30 08:27 | 13.12595 | 66.41262 | 37891 ft | 474 kts | 322° |
| 2026-04-30 08:28 | 13.17766 | 66.36985 | 37889 ft | 474 kts | 322° |
| 2026-04-30 08:28 | 13.22922 | 66.32717 | 37891 ft | 474 kts | 321° |
| 2026-04-30 08:29 | 13.28034 | 66.28484 | 37888 ft | 474 kts | 321° |
| 2026-04-30 08:29 | 13.33201 | 66.24204 | 37885 ft | 474 kts | 321° |
| 2026-04-30 08:30 | 13.38363 | 66.19923 | 37887 ft | 474 kts | 321° |
| 2026-04-30 08:30 | 13.43506 | 66.15657 | 37889 ft | 474 kts | 321° |
| 2026-04-30 08:31 | 13.48633 | 66.11401 | 37891 ft | 473 kts | 321° |
| 2026-04-30 08:31 | 13.53760 | 66.07143 | 37887 ft | 474 kts | 321° |
| 2026-04-30 08:32 | 13.58913 | 66.02863 | 37887 ft | 475 kts | 321° |
| 2026-04-30 08:32 | 13.64044 | 65.98596 | 37888 ft | 475 kts | 321° |
| 2026-04-30 08:33 | 13.69193 | 65.94313 | 37887 ft | 475 kts | 321° |
| 2026-04-30 08:33 | 13.74352 | 65.90018 | 37888 ft | 475 kts | 321° |
| 2026-04-30 08:34 | 13.79485 | 65.85744 | 37888 ft | 475 kts | 321° |
| 2026-04-30 08:34 | 13.84644 | 65.81445 | 37886 ft | 477 kts | 321° |
| 2026-04-30 08:35 | 13.89798 | 65.77147 | 37888 ft | 478 kts | 321° |
| 2026-04-30 08:35 | 13.94955 | 65.72844 | 37886 ft | 477 kts | 321° |
| 2026-04-30 08:36 | 14.00108 | 65.68543 | 37889 ft | 476 kts | 321° |
| 2026-04-30 08:36 | 14.05253 | 65.64245 | 37890 ft | 476 kts | 321° |
| 2026-04-30 08:37 | 14.10412 | 65.59933 | 37889 ft | 478 kts | 321° |
| 2026-04-30 08:37 | 14.15603 | 65.55591 | 37878 ft | 479 kts | 321° |
| 2026-04-30 08:38 | 14.20799 | 65.51244 | 37868 ft | 482 kts | 321° |
| 2026-04-30 08:38 | 14.25970 | 65.46913 | 37867 ft | 479 kts | 321° |
| 2026-04-30 08:39 | 14.31163 | 65.42562 | 37866 ft | 480 kts | 320° |
| 2026-04-30 08:39 | 14.36371 | 65.38197 | 37868 ft | 480 kts | 320° |
| 2026-04-30 08:40 | 14.41522 | 65.33875 | 37867 ft | 479 kts | 320° |
| 2026-04-30 08:40 | 14.46702 | 65.29527 | 37865 ft | 479 kts | 320° |
| 2026-04-30 08:41 | 14.51891 | 65.25169 | 37868 ft | 480 kts | 320° |
| 2026-04-30 08:41 | 14.57037 | 65.20843 | 37876 ft | 479 kts | 320° |
| 2026-04-30 08:42 | 14.62200 | 65.16501 | 37887 ft | 479 kts | 320° |
| 2026-04-30 08:42 | 14.67367 | 65.12149 | 37888 ft | 478 kts | 320° |
| 2026-04-30 08:43 | 14.72534 | 65.07796 | 37886 ft | 477 kts | 320° |
| 2026-04-30 08:43 | 14.77678 | 65.03459 | 37888 ft | 477 kts | 320° |
| 2026-04-30 08:44 | 14.82830 | 64.99113 | 37888 ft | 477 kts | 320° |
| 2026-04-30 08:44 | 14.88000 | 64.94749 | 37888 ft | 478 kts | 320° |
| 2026-04-30 08:45 | 14.93162 | 64.90389 | 37887 ft | 480 kts | 320° |
| 2026-04-30 08:45 | 14.98315 | 64.86033 | 37888 ft | 479 kts | 320° |
| 2026-04-30 08:46 | 15.03463 | 64.81679 | 37889 ft | 477 kts | 320° |
| 2026-04-30 08:46 | 15.08620 | 64.77315 | 37888 ft | 478 kts | 320° |
| 2026-04-30 08:47 | 15.13764 | 64.72958 | 37885 ft | 479 kts | 320° |
| 2026-04-30 08:47 | 15.18927 | 64.68584 | 37884 ft | 479 kts | 320° |
| 2026-04-30 08:48 | 15.24088 | 64.64207 | 37884 ft | 479 kts | 320° |
| 2026-04-30 08:48 | 15.29248 | 64.59828 | 37882 ft | 481 kts | 320° |
| 2026-04-30 08:49 | 15.34429 | 64.55429 | 37882 ft | 482 kts | 320° |
| 2026-04-30 08:49 | 15.39593 | 64.51042 | 37879 ft | 481 kts | 320° |
| 2026-04-30 08:50 | 15.44760 | 64.46649 | 37879 ft | 481 kts | 320° |
| 2026-04-30 08:50 | 15.49947 | 64.42236 | 37880 ft | 481 kts | 320° |
| 2026-04-30 08:51 | 15.55126 | 64.37827 | 37875 ft | 481 kts | 320° |
| 2026-04-30 08:51 | 15.60312 | 64.33409 | 37876 ft | 482 kts | 320° |
| 2026-04-30 08:52 | 15.65494 | 64.28991 | 37871 ft | 482 kts | 320° |
| 2026-04-30 08:52 | 15.70663 | 64.24581 | 37871 ft | 481 kts | 320° |
| 2026-04-30 08:53 | 15.75840 | 64.20162 | 37868 ft | 481 kts | 320° |
| 2026-04-30 08:53 | 15.81006 | 64.15749 | 37868 ft | 480 kts | 320° |
| 2026-04-30 08:54 | 15.86163 | 64.11341 | 37870 ft | 480 kts | 319° |
| 2026-04-30 08:54 | 15.91317 | 64.06933 | 37870 ft | 479 kts | 319° |
| 2026-04-30 08:55 | 15.96472 | 64.02520 | 37868 ft | 479 kts | 319° |
| 2026-04-30 08:55 | 16.01613 | 63.98116 | 37869 ft | 479 kts | 319° |
| 2026-04-30 08:56 | 16.06766 | 63.93699 | 37869 ft | 480 kts | 320° |
| 2026-04-30 08:56 | 16.11928 | 63.89272 | 37866 ft | 480 kts | 319° |
| 2026-04-30 08:57 | 16.17102 | 63.84830 | 37864 ft | 480 kts | 319° |
| 2026-04-30 08:57 | 16.22264 | 63.80396 | 37864 ft | 481 kts | 319° |
| 2026-04-30 08:58 | 16.27428 | 63.75957 | 37863 ft | 481 kts | 319° |
| 2026-04-30 08:58 | 16.32593 | 63.71514 | 37862 ft | 481 kts | 319° |
| 2026-04-30 08:59 | 16.37768 | 63.67060 | 37863 ft | 481 kts | 319° |
| 2026-04-30 08:59 | 16.42933 | 63.62611 | 37861 ft | 483 kts | 319° |
| 2026-04-30 09:00 | 16.48079 | 63.58175 | 37863 ft | 483 kts | 319° |
| 2026-04-30 09:00 | 16.53266 | 63.53701 | 37862 ft | 484 kts | 319° |
| 2026-04-30 09:01 | 16.58450 | 63.49225 | 37861 ft | 485 kts | 319° |
| 2026-04-30 09:01 | 16.63640 | 63.44742 | 37859 ft | 485 kts | 319° |
| 2026-04-30 09:02 | 16.71482 | 63.37961 | 37856 ft | 486 kts | 320° |
| 2026-04-30 09:02 | 16.76686 | 63.33457 | 37866 ft | 487 kts | 319° |
| 2026-04-30 09:03 | 16.81872 | 63.28966 | 37872 ft | 487 kts | 319° |
| 2026-04-30 09:03 | 16.87103 | 63.24432 | 37872 ft | 488 kts | 319° |
| 2026-04-30 09:04 | 16.92353 | 63.19878 | 37872 ft | 488 kts | 319° |
| 2026-04-30 09:04 | 16.97583 | 63.15339 | 37870 ft | 489 kts | 319° |
| 2026-04-30 09:05 | 17.02809 | 63.10774 | 37871 ft | 489 kts | 318° |
| 2026-04-30 09:05 | 17.07928 | 63.06118 | 37869 ft | 488 kts | 318° |
| 2026-04-30 09:06 | 17.13040 | 63.01463 | 37865 ft | 488 kts | 318° |
| 2026-04-30 09:06 | 17.18181 | 62.96784 | 37867 ft | 488 kts | 318° |
| 2026-04-30 09:07 | 17.23338 | 62.92090 | 37869 ft | 487 kts | 318° |
| 2026-04-30 09:07 | 17.28433 | 62.87450 | 37866 ft | 487 kts | 318° |
| 2026-04-30 09:08 | 17.33556 | 62.82783 | 37863 ft | 487 kts | 318° |
| 2026-04-30 09:08 | 17.38648 | 62.78140 | 37859 ft | 486 kts | 318° |
| 2026-04-30 09:09 | 17.43756 | 62.73480 | 37860 ft | 486 kts | 318° |
| 2026-04-30 09:09 | 17.48875 | 62.68807 | 37862 ft | 485 kts | 318° |
| 2026-04-30 09:10 | 17.53987 | 62.64135 | 37862 ft | 486 kts | 318° |
| 2026-04-30 09:10 | 17.59119 | 62.59443 | 37867 ft | 486 kts | 318° |
| 2026-04-30 09:11 | 17.64180 | 62.54811 | 37868 ft | 485 kts | 318° |
| 2026-04-30 09:11 | 17.69282 | 62.50138 | 37868 ft | 486 kts | 318° |
| 2026-04-30 09:12 | 17.74344 | 62.45499 | 37867 ft | 486 kts | 318° |
| 2026-04-30 09:12 | 17.79434 | 62.40830 | 37869 ft | 485 kts | 318° |
| 2026-04-30 09:13 | 17.84524 | 62.36157 | 37872 ft | 486 kts | 318° |
| 2026-04-30 09:13 | 17.89643 | 62.31454 | 37868 ft | 486 kts | 317° |
| 2026-04-30 09:14 | 17.94755 | 62.26754 | 37870 ft | 487 kts | 317° |
| 2026-04-30 09:14 | 17.99851 | 62.22064 | 37871 ft | 487 kts | 317° |
| 2026-04-30 09:15 | 18.04951 | 62.17368 | 37867 ft | 487 kts | 317° |
| 2026-04-30 09:15 | 18.10045 | 62.12672 | 37866 ft | 486 kts | 317° |
| 2026-04-30 09:16 | 18.15168 | 62.07947 | 37854 ft | 487 kts | 317° |
| 2026-04-30 09:16 | 18.20233 | 62.03272 | 37849 ft | 487 kts | 317° |
| 2026-04-30 09:17 | 18.25309 | 61.98582 | 37844 ft | 486 kts | 317° |
| 2026-04-30 09:17 | 18.30438 | 61.93839 | 37845 ft | 487 kts | 317° |
| 2026-04-30 09:18 | 18.35535 | 61.89122 | 37847 ft | 488 kts | 317° |
| 2026-04-30 09:18 | 18.40624 | 61.84409 | 37847 ft | 488 kts | 317° |
| 2026-04-30 09:19 | 18.45749 | 61.79659 | 37847 ft | 486 kts | 317° |
| 2026-04-30 09:19 | 18.50808 | 61.74966 | 37847 ft | 485 kts | 317° |
| 2026-04-30 09:20 | 18.55891 | 61.70246 | 37848 ft | 485 kts | 317° |
| 2026-04-30 09:20 | 18.60984 | 61.65513 | 37850 ft | 486 kts | 317° |
| 2026-04-30 09:21 | 18.66032 | 61.60819 | 37851 ft | 485 kts | 317° |
| 2026-04-30 09:21 | 18.71101 | 61.56101 | 37851 ft | 486 kts | 317° |
| 2026-04-30 09:22 | 18.76150 | 61.51397 | 37851 ft | 485 kts | 317° |
| 2026-04-30 09:22 | 18.81243 | 61.46650 | 37853 ft | 486 kts | 317° |
| 2026-04-30 09:23 | 18.86278 | 61.41951 | 37852 ft | 485 kts | 317° |
| 2026-04-30 09:23 | 18.91338 | 61.37226 | 37850 ft | 484 kts | 317° |
| 2026-04-30 09:24 | 18.96396 | 61.32498 | 37852 ft | 484 kts | 317° |
| 2026-04-30 09:24 | 19.01451 | 61.27769 | 37849 ft | 485 kts | 317° |
| 2026-04-30 09:25 | 19.06498 | 61.23044 | 37850 ft | 484 kts | 316° |
| 2026-04-30 09:25 | 19.11546 | 61.18314 | 37845 ft | 484 kts | 316° |
| 2026-04-30 09:26 | 19.16609 | 61.13565 | 37845 ft | 484 kts | 316° |
| 2026-04-30 09:26 | 19.21650 | 61.08834 | 37846 ft | 484 kts | 316° |
| 2026-04-30 09:27 | 19.26665 | 61.04122 | 37844 ft | 484 kts | 316° |
| 2026-04-30 09:27 | 19.31712 | 60.99377 | 37841 ft | 484 kts | 316° |
| 2026-04-30 09:28 | 19.36724 | 60.94661 | 37836 ft | 484 kts | 316° |
| 2026-04-30 09:28 | 19.41759 | 60.89918 | 37828 ft | 483 kts | 316° |
| 2026-04-30 09:29 | 19.46806 | 60.85161 | 37826 ft | 484 kts | 316° |
| 2026-04-30 09:29 | 19.51829 | 60.80422 | 37827 ft | 484 kts | 316° |
| 2026-04-30 09:30 | 19.56808 | 60.75721 | 37827 ft | 482 kts | 316° |
| 2026-04-30 09:30 | 19.61844 | 60.70960 | 37827 ft | 483 kts | 316° |
| 2026-04-30 09:31 | 19.66861 | 60.66214 | 37829 ft | 482 kts | 316° |
| 2026-04-30 09:31 | 19.71880 | 60.61463 | 37828 ft | 482 kts | 316° |
| 2026-04-30 09:32 | 19.76874 | 60.56730 | 37829 ft | 482 kts | 316° |
| 2026-04-30 09:32 | 19.81891 | 60.51972 | 37832 ft | 482 kts | 316° |
| 2026-04-30 09:33 | 19.86859 | 60.47256 | 37830 ft | 481 kts | 316° |
| 2026-04-30 09:33 | 19.91845 | 60.42519 | 37829 ft | 481 kts | 316° |
| 2026-04-30 09:34 | 19.96832 | 60.37776 | 37825 ft | 482 kts | 316° |
| 2026-04-30 09:34 | 20.01849 | 60.33002 | 37826 ft | 483 kts | 316° |
| 2026-04-30 09:35 | 20.07118 | 60.28627 | 37829 ft | 486 kts | 327° |
| 2026-04-30 09:35 | 20.12947 | 60.24932 | 37822 ft | 484 kts | 327° |
| 2026-04-30 09:36 | 20.18749 | 60.21268 | 37823 ft | 485 kts | 327° |
| 2026-04-30 09:36 | 20.24516 | 60.17616 | 37821 ft | 484 kts | 327° |
| 2026-04-30 09:37 | 20.30305 | 60.13943 | 37823 ft | 484 kts | 327° |
| 2026-04-30 09:37 | 20.36121 | 60.10248 | 37825 ft | 484 kts | 327° |
| 2026-04-30 09:38 | 20.41892 | 60.06576 | 37833 ft | 485 kts | 327° |
| 2026-04-30 09:38 | 20.47705 | 60.02874 | 37829 ft | 486 kts | 327° |
| 2026-04-30 09:39 | 20.53502 | 59.99180 | 37824 ft | 485 kts | 327° |
| 2026-04-30 09:39 | 20.59277 | 59.95495 | 37812 ft | 484 kts | 327° |
| 2026-04-30 09:40 | 20.65040 | 59.91814 | 37812 ft | 483 kts | 327° |
| 2026-04-30 09:40 | 20.70850 | 59.88100 | 37809 ft | 483 kts | 327° |
| 2026-04-30 09:41 | 20.76615 | 59.84412 | 37809 ft | 484 kts | 327° |
| 2026-04-30 09:41 | 20.82401 | 59.80707 | 37807 ft | 484 kts | 327° |
| 2026-04-30 09:42 | 20.88174 | 59.77007 | 37808 ft | 485 kts | 327° |
| 2026-04-30 09:42 | 20.93961 | 59.73294 | 37804 ft | 486 kts | 327° |
| 2026-04-30 09:43 | 20.99787 | 59.69553 | 37800 ft | 485 kts | 327° |
| 2026-04-30 09:43 | 21.05562 | 59.65840 | 37790 ft | 484 kts | 327° |
| 2026-04-30 09:44 | 21.11315 | 59.62136 | 37787 ft | 484 kts | 327° |
| 2026-04-30 09:44 | 21.17121 | 59.58395 | 37784 ft | 484 kts | 327° |
| 2026-04-30 09:45 | 21.22896 | 59.54670 | 37775 ft | 484 kts | 327° |
| 2026-04-30 09:45 | 21.28647 | 59.50957 | 37770 ft | 485 kts | 327° |
| 2026-04-30 09:46 | 21.34437 | 59.47215 | 37767 ft | 485 kts | 327° |
| 2026-04-30 09:46 | 21.40202 | 59.43485 | 37769 ft | 484 kts | 327° |
| 2026-04-30 09:47 | 21.45984 | 59.39741 | 37765 ft | 485 kts | 327° |
| 2026-04-30 09:47 | 21.51754 | 59.36000 | 37766 ft | 485 kts | 326° |
| 2026-04-30 09:48 | 21.57521 | 59.32259 | 37774 ft | 485 kts | 326° |
| 2026-04-30 09:48 | 21.63286 | 59.28516 | 37778 ft | 484 kts | 326° |
| 2026-04-30 09:49 | 21.69082 | 59.24750 | 37788 ft | 485 kts | 326° |
| 2026-04-30 09:49 | 21.74844 | 59.21004 | 37799 ft | 485 kts | 326° |
| 2026-04-30 09:50 | 21.80621 | 59.17244 | 37803 ft | 485 kts | 326° |
| 2026-04-30 09:50 | 21.86361 | 59.13505 | 37812 ft | 484 kts | 326° |
| 2026-04-30 09:51 | 21.92123 | 59.09748 | 37815 ft | 484 kts | 326° |
| 2026-04-30 09:51 | 21.97906 | 59.05974 | 37816 ft | 484 kts | 326° |
| 2026-04-30 09:52 | 22.03641 | 59.02227 | 37820 ft | 483 kts | 326° |
| 2026-04-30 09:52 | 22.09404 | 58.98459 | 37832 ft | 483 kts | 326° |
| 2026-04-30 09:53 | 22.15141 | 58.94703 | 37829 ft | 483 kts | 325° |
| 2026-04-30 09:53 | 22.20901 | 58.90929 | 37826 ft | 484 kts | 325° |
| 2026-04-30 09:54 | 22.26655 | 58.87155 | 37830 ft | 484 kts | 325° |
| 2026-04-30 09:54 | 22.32398 | 58.83385 | 37843 ft | 483 kts | 325° |
| 2026-04-30 09:55 | 22.38149 | 58.79607 | 37847 ft | 483 kts | 325° |
| 2026-04-30 09:55 | 22.43887 | 58.75833 | 37852 ft | 482 kts | 325° |
| 2026-04-30 09:56 | 22.49595 | 58.72075 | 37863 ft | 482 kts | 325° |
| 2026-04-30 09:56 | 22.55326 | 58.68298 | 37874 ft | 481 kts | 325° |
| 2026-04-30 09:57 | 22.61053 | 58.64520 | 37884 ft | 481 kts | 325° |
| 2026-04-30 09:57 | 22.66784 | 58.60736 | 37893 ft | 483 kts | 325° |
| 2026-04-30 09:58 | 22.72493 | 58.56963 | 37911 ft | 483 kts | 324° |
| 2026-04-30 09:58 | 22.78201 | 58.53189 | 37924 ft | 481 kts | 324° |
| 2026-04-30 09:59 | 22.89609 | 58.45632 | 37966 ft | 481 kts | 324° |
| 2026-04-30 10:00 | 22.98166 | 58.39955 | 37991 ft | 480 kts | 324° |
| 2026-04-30 10:01 | 23.06740 | 58.34255 | 38000 ft | 481 kts | 324° |
| 2026-04-30 10:02 | 23.15294 | 58.28558 | 37985 ft | 480 kts | 324° |
| 2026-04-30 10:02 | 23.20978 | 58.24768 | 37988 ft | 479 kts | 324° |
| 2026-04-30 10:03 | 23.26665 | 58.20972 | 37969 ft | 478 kts | 324° |
| 2026-04-30 10:03 | 23.32353 | 58.17171 | 37916 ft | 478 kts | 324° |
| 2026-04-30 10:04 | 23.37923 | 58.13269 | 37878 ft | 472 kts | 316° |
| 2026-04-30 10:04 | 23.42359 | 58.08181 | 37845 ft | 462 kts | 302° |
| 2026-04-30 10:05 | 23.46122 | 58.02481 | 37830 ft | 461 kts | 301° |
| 2026-04-30 10:05 | 23.49834 | 57.96812 | 37811 ft | 462 kts | 301° |
| 2026-04-30 10:06 | 23.53554 | 57.91121 | 37798 ft | 461 kts | 301° |
| 2026-04-30 10:06 | 23.57241 | 57.85473 | 37784 ft | 459 kts | 301° |
| 2026-04-30 10:07 | 23.61018 | 57.79847 | 37783 ft | 461 kts | 304° |
| 2026-04-30 10:07 | 23.64988 | 57.74350 | 37767 ft | 460 kts | 304° |
| 2026-04-30 10:08 | 23.68959 | 57.68830 | 37773 ft | 460 kts | 304° |
| 2026-04-30 10:08 | 23.72887 | 57.63347 | 37767 ft | 459 kts | 304° |
| 2026-04-30 10:09 | 23.76808 | 57.57860 | 37772 ft | 459 kts | 304° |
| 2026-04-30 10:09 | 23.80752 | 57.52333 | 37760 ft | 458 kts | 304° |
| 2026-04-30 10:10 | 23.84673 | 57.46829 | 37762 ft | 456 kts | 304° |
| 2026-04-30 10:10 | 23.88547 | 57.41383 | 37746 ft | 455 kts | 304° |
| 2026-04-30 10:11 | 23.92461 | 57.35875 | 37734 ft | 455 kts | 303° |
| 2026-04-30 10:11 | 23.96341 | 57.30409 | 37753 ft | 454 kts | 303° |
| 2026-04-30 10:12 | 24.00225 | 57.24930 | 37734 ft | 455 kts | 303° |
| 2026-04-30 10:12 | 24.04097 | 57.19462 | 37737 ft | 454 kts | 303° |
| 2026-04-30 10:13 | 24.07972 | 57.13985 | 37736 ft | 454 kts | 303° |
| 2026-04-30 10:13 | 24.11779 | 57.08602 | 37419 ft | 441 kts | 303° |
| 2026-04-30 10:13 | 24.13651 | 57.05948 | 36269 ft | 450 kts | 303° |
| 2026-04-30 10:14 | 24.15611 | 57.03166 | 35003 ft | 459 kts | 303° |
| 2026-04-30 10:14 | 24.17560 | 57.00401 | 34112 ft | 461 kts | 303° |
| 2026-04-30 10:14 | 24.21481 | 56.94838 | 32419 ft | 462 kts | 303° |
| 2026-04-30 10:15 | 24.23422 | 56.92079 | 31593 ft | 463 kts | 303° |
| 2026-04-30 10:15 | 24.25413 | 56.89248 | 30693 ft | 466 kts | 303° |
| 2026-04-30 10:15 | 24.27376 | 56.86456 | 30072 ft | 461 kts | 303° |
| 2026-04-30 10:15 | 24.29326 | 56.83683 | 29581 ft | 455 kts | 303° |
| 2026-04-30 10:16 | 24.31225 | 56.80980 | 29047 ft | 450 kts | 303° |
| 2026-04-30 10:16 | 24.33121 | 56.78279 | 28494 ft | 445 kts | 303° |
| 2026-04-30 10:16 | 24.34998 | 56.75602 | 27970 ft | 442 kts | 303° |
| 2026-04-30 10:17 | 24.38707 | 56.70309 | 26843 ft | 436 kts | 303° |
| 2026-04-30 10:17 | 24.42391 | 56.65045 | 25658 ft | 431 kts | 303° |
| 2026-04-30 10:17 | 24.44287 | 56.62529 | 25071 ft | 431 kts | 308° |
| 2026-04-30 10:18 | 24.46331 | 56.60123 | 24459 ft | 429 kts | 309° |
| 2026-04-30 10:18 | 24.48370 | 56.57746 | 23839 ft | 426 kts | 308° |
| 2026-04-30 10:18 | 24.50398 | 56.55381 | 23192 ft | 423 kts | 308° |
| 2026-04-30 10:19 | 24.54380 | 56.50730 | 21933 ft | 416 kts | 308° |
| 2026-04-30 10:19 | 24.56337 | 56.48440 | 21319 ft | 412 kts | 309° |
| 2026-04-30 10:19 | 24.58296 | 56.46147 | 20718 ft | 408 kts | 309° |
| 2026-04-30 10:19 | 24.60230 | 56.43883 | 20118 ft | 404 kts | 309° |
| 2026-04-30 10:20 | 24.62136 | 56.41648 | 19523 ft | 400 kts | 309° |
| 2026-04-30 10:20 | 24.65894 | 56.37239 | 18350 ft | 393 kts | 309° |
| 2026-04-30 10:20 | 24.67769 | 56.35038 | 17752 ft | 391 kts | 309° |
| 2026-04-30 10:21 | 24.69635 | 56.32877 | 17164 ft | 390 kts | 312° |
| 2026-04-30 10:21 | 24.71750 | 56.31028 | 16559 ft | 393 kts | 323° |
| 2026-04-30 10:21 | 24.74193 | 56.29644 | 15941 ft | 396 kts | 335° |
| 2026-04-30 10:21 | 24.76829 | 56.28727 | 15327 ft | 397 kts | 341° |
| 2026-04-30 10:22 | 24.79471 | 56.27930 | 14701 ft | 396 kts | 341° |
| 2026-04-30 10:22 | 24.82145 | 56.27123 | 14064 ft | 394 kts | 340° |
| 2026-04-30 10:22 | 24.84664 | 56.26009 | 13443 ft | 389 kts | 329° |
| 2026-04-30 10:22 | 24.86904 | 56.24410 | 12847 ft | 384 kts | 319° |
| 2026-04-30 10:23 | 24.88803 | 56.22392 | 12217 ft | 379 kts | 308° |
| 2026-04-30 10:23 | 24.90321 | 56.20032 | 11744 ft | 369 kts | 299° |
| 2026-04-30 10:23 | 24.91617 | 56.17683 | 11683 ft | 352 kts | 299° |
| 2026-04-30 10:23 | 24.92845 | 56.15431 | 11579 ft | 338 kts | 298° |
| 2026-04-30 10:24 | 24.94025 | 56.13230 | 11431 ft | 325 kts | 298° |
| 2026-04-30 10:24 | 24.95133 | 56.11125 | 11298 ft | 314 kts | 297° |
| 2026-04-30 10:24 | 24.96202 | 56.09065 | 11126 ft | 303 kts | 297° |
| 2026-04-30 10:24 | 24.97191 | 56.07082 | 11007 ft | 290 kts | 291° |
| 2026-04-30 10:25 | 24.97893 | 56.05053 | 10874 ft | 280 kts | 286° |
| 2026-04-30 10:25 | 24.98501 | 56.03017 | 10531 ft | 279 kts | 285° |
| 2026-04-30 10:25 | 24.99103 | 56.00972 | 10155 ft | 279 kts | 285° |
| 2026-04-30 10:25 | 24.99706 | 55.98942 | 9811 ft | 279 kts | 286° |
| 2026-04-30 10:26 | 25.00310 | 55.96915 | 9578 ft | 273 kts | 286° |
| 2026-04-30 10:26 | 25.00896 | 55.94951 | 9326 ft | 270 kts | 286° |
| 2026-04-30 10:26 | 25.01484 | 55.92972 | 8890 ft | 274 kts | 286° |
| 2026-04-30 10:26 | 25.02062 | 55.91032 | 8733 ft | 266 kts | 286° |
| 2026-04-30 10:27 | 25.02644 | 55.89075 | 8245 ft | 271 kts | 287° |
| 2026-04-30 10:27 | 25.03234 | 55.87089 | 7867 ft | 269 kts | 287° |
| 2026-04-30 10:27 | 25.03805 | 55.85170 | 7667 ft | 264 kts | 287° |
| 2026-04-30 10:27 | 25.04378 | 55.83241 | 7237 ft | 268 kts | 287° |
| 2026-04-30 10:28 | 25.04959 | 55.81285 | 6977 ft | 265 kts | 287° |
| 2026-04-30 10:28 | 25.05523 | 55.79383 | 6675 ft | 264 kts | 288° |
| 2026-04-30 10:28 | 25.06095 | 55.77452 | 6293 ft | 267 kts | 288° |
| 2026-04-30 10:28 | 25.06669 | 55.75519 | 5987 ft | 264 kts | 288° |
| 2026-04-30 10:29 | 25.07233 | 55.73614 | 5621 ft | 264 kts | 288° |
| 2026-04-30 10:29 | 25.07800 | 55.71701 | 5264 ft | 262 kts | 288° |
| 2026-04-30 10:29 | 25.08357 | 55.69819 | 5086 ft | 253 kts | 288° |
| 2026-04-30 10:29 | 25.08889 | 55.68019 | 5047 ft | 240 kts | 288° |
| 2026-04-30 10:30 | 25.09397 | 55.66299 | 4944 ft | 231 kts | 288° |
| 2026-04-30 10:30 | 25.09888 | 55.64639 | 4832 ft | 222 kts | 289° |
| 2026-04-30 10:30 | 25.10470 | 55.63105 | 4720 ft | 212 kts | 300° |
| 2026-04-30 10:30 | 25.11249 | 55.61731 | 4488 ft | 209 kts | 301° |
| 2026-04-30 10:31 | 25.11970 | 55.60314 | 4228 ft | 207 kts | 300° |
| 2026-04-30 10:31 | 25.13329 | 55.57782 | 3751 ft | 203 kts | 302° |
| 2026-04-30 10:31 | 25.14075 | 55.56457 | 3488 ft | 199 kts | 303° |
| 2026-04-30 10:32 | 25.14802 | 55.55180 | 3237 ft | 195 kts | 303° |
| 2026-04-30 10:32 | 25.15508 | 55.53933 | 2992 ft | 190 kts | 303° |
| 2026-04-30 10:32 | 25.16183 | 55.52734 | 2752 ft | 176 kts | 303° |
| 2026-04-30 10:32 | 25.16807 | 55.51625 | 2531 ft | 167 kts | 303° |
| 2026-04-30 10:33 | 25.17408 | 55.50549 | 2317 ft | 160 kts | 303° |
| 2026-04-30 10:33 | 25.17991 | 55.49508 | 2124 ft | 162 kts | 303° |
| 2026-04-30 10:33 | 25.18585 | 55.48443 | 1904 ft | 162 kts | 303° |
| 2026-04-30 10:33 | 25.19165 | 55.47400 | 1695 ft | 155 kts | 303° |
| 2026-04-30 10:34 | 25.19712 | 55.46422 | 1493 ft | 147 kts | 303° |
| 2026-04-30 10:34 | 25.20244 | 55.45472 | 1294 ft | 144 kts | 303° |
| 2026-04-30 10:34 | 25.20771 | 55.44526 | 1107 ft | 143 kts | 302° |
| 2026-04-30 10:34 | 25.21289 | 55.43593 | 912 ft | 144 kts | 303° |
| 2026-04-30 10:35 | 25.21809 | 55.42661 | 731 ft | 142 kts | 303° |
| 2026-04-30 10:35 | 25.21895 | 55.42507 | 698 ft | 142 kts | 303° |
| 2026-04-30 10:35 | 25.22350 | 55.41700 | 528 ft | 142 kts | 303° |
| 2026-04-30 10:35 | 25.22871 | 55.40774 | 345 ft | 142 kts | 302° |
| 2026-04-30 10:36 | 25.23387 | 55.39849 | 187 ft | 142 kts | 302° |
| 2026-04-30 10:36 | 25.23904 | 55.38925 | 79 ft | 134 kts | 302° |
| 2026-04-30 10:36 | 25.24334 | 55.38155 | 77 ft | 100 kts | 301° |
| 2026-04-30 10:36 | 25.24601 | 55.37664 | 76 ft | 55 kts | 302° |
| 2026-04-30 10:37 | 25.24730 | 55.37429 | 76 ft | 41 kts | 298° |
| 2026-04-30 10:37 | 25.24784 | 55.37217 | 76 ft | 23 kts | 275° |
| 2026-04-30 10:37 | 25.24790 | 55.37058 | 76 ft | 18 kts | 271° |
| 2026-04-30 10:37 | 25.24830 | 55.36886 | 76 ft | 16 kts | 296° |
| 2026-04-30 10:38 | 25.24855 | 55.36809 | 76 ft | 15 kts | 283° |
| 2026-04-30 10:38 | 25.24882 | 55.36692 | 76 ft | 17 kts | 289° |
| 2026-04-30 10:38 | 25.24942 | 55.36571 | 76 ft | 17 kts | 301° |
| 2026-04-30 10:38 | 25.25003 | 55.36460 | 76 ft | 16 kts | 302° |
| 2026-04-30 10:39 | 25.25060 | 55.36359 | 76 ft | 14 kts | 302° |
| 2026-04-30 10:39 | 25.25112 | 55.36263 | 76 ft | 13 kts | 302° |
| 2026-04-30 10:39 | 25.25160 | 55.36176 | 76 ft | 13 kts | 300° |
| 2026-04-30 10:39 | 25.25193 | 55.36101 | 76 ft | 6 kts | 262° |
| 2026-04-30 10:40 | 25.25164 | 55.36061 | 76 ft | 8 kts | 210° |
| 2026-04-30 10:40 | 25.25108 | 55.36023 | 76 ft | 9 kts | 211° |
| 2026-04-30 10:40 | 25.25066 | 55.35996 | 76 ft | 3 kts | 211° |
| 2026-04-30 10:40 | 25.25052 | 55.35987 | 76 ft | 0 kts | 211° |